Time;durP1;ratioP1;P1;durP2;ratioP2;P2;SDS_P1;SDS_P2;PMS_P1;PMS_P2;Temp;Humidity;BMP_temperature;BMP_pressure;BME280_temperature;BME280_humidity;BME280_pressure;Samples;Min_cycle;Max_cycle;Signal;HPM_P1;HPM_P2
2022/03/09 00:00:24;;;;;;;10.60;7.77;;;;;;;2.15;100.00;99689.53;5132484;27;20492;-79
2022/03/09 00:02:54;;;;;;;11.43;7.07;;;;;;;2.09;100.00;99703.59;5130063;27;20206;-79
2022/03/09 00:05:28;;;;;;;10.40;7.00;;;;;;;2.05;100.00;99704.56;5070154;28;20197;-79
2022/03/09 00:07:56;;;;;;;12.20;7.20;;;;;;;2.05;100.00;99704.56;5069481;28;20227;-79
2022/03/09 00:10:28;;;;;;;10.37;7.30;;;;;;;2.22;100.00;99696.34;5068943;28;20204;-79
2022/03/09 00:12:57;;;;;;;11.40;7.20;;;;;;;2.28;100.00;99697.06;5072827;28;20200;-79
2022/03/09 00:15:27;;;;;;;10.87;6.33;;;;;;;2.13;100.00;99702.66;5065945;28;20200;-79
2022/03/09 00:17:56;;;;;;;9.47;6.30;;;;;;;2.05;100.00;99699.34;5063771;28;20206;-79
2022/03/09 00:20:26;;;;;;;10.33;6.70;;;;;;;1.98;100.00;99711.66;5071159;28;20290;-79
2022/03/09 00:22:55;;;;;;;15.93;7.57;;;;;;;1.89;100.00;99708.34;5077739;27;20198;-79
2022/03/09 00:25:30;;;;;;;13.53;8.07;;;;;;;1.78;100.00;99712.94;5129545;27;20270;-80
2022/03/09 00:28:00;;;;;;;12.00;7.37;;;;;;;1.75;100.00;99713.00;5128360;27;20305;-79
2022/03/09 00:30:31;;;;;;;9.50;6.90;;;;;;;1.60;100.00;99712.41;5025363;28;20232;-79
2022/03/09 00:32:59;;;;;;;13.43;7.53;;;;;;;1.37;100.00;99715.44;5028886;28;20201;-79
2022/03/09 00:35:31;;;;;;;11.53;7.70;;;;;;;1.31;100.00;99725.97;5027400;28;20204;-79
2022/03/09 00:38:08;;;;;;;17.93;9.37;;;;;;;1.12;100.00;99735.00;5028413;28;20197;-79
2022/03/09 00:40:38;;;;;;;19.47;10.20;;;;;;;1.24;100.00;99721.72;5024878;28;20215;-78
2022/03/09 00:43:07;;;;;;;15.77;9.53;;;;;;;1.19;100.00;99726.19;5030392;28;20190;-79
2022/03/09 00:45:40;;;;;;;15.83;9.80;;;;;;;1.15;100.00;99727.97;4973921;28;20234;-80
2022/03/09 00:48:11;;;;;;;16.87;8.60;;;;;;;1.25;100.00;99725.22;5021770;28;20216;-79
2022/03/09 00:50:41;;;;;;;19.20;9.73;;;;;;;1.40;100.00;99732.78;5090228;28;20192;-79
2022/03/09 00:53:10;;;;;;;24.63;12.97;;;;;;;1.20;100.00;99734.88;5088042;28;20719;-79
2022/03/09 00:55:39;;;;;;;23.10;12.17;;;;;;;1.29;100.00;99732.97;4961234;28;20198;-79
2022/03/09 00:58:07;;;;;;;14.93;9.70;;;;;;;1.20;100.00;99729.66;5011495;28;20210;-79
2022/03/09 01:00:40;;;;;;;15.07;8.53;;;;;;;1.33;100.00;99723.31;5023640;28;20777;-79
2022/03/09 01:03:09;;;;;;;14.30;8.17;;;;;;;1.22;100.00;99723.50;5043095;28;20199;-80
2022/03/09 01:05:41;;;;;;;14.53;8.23;;;;;;;1.44;100.00;99722.25;5080741;28;20207;-79
2022/03/09 01:08:10;;;;;;;15.03;8.13;;;;;;;1.37;100.00;99728.47;5088234;28;20218;-79
2022/03/09 01:10:45;;;;;;;15.47;8.67;;;;;;;1.17;100.00;99725.34;5088719;28;20210;-81
2022/03/09 01:13:14;;;;;;;16.17;8.63;;;;;;;1.06;100.00;99722.94;5012272;28;20202;-79
2022/03/09 01:15:43;;;;;;;12.23;7.80;;;;;;;0.94;100.00;99720.50;5006987;28;20285;-79
2022/03/09 01:18:13;;;;;;;14.10;7.63;;;;;;;0.97;100.00;99715.25;4934460;29;20208;-79
2022/03/09 01:21:06;;;;;;;13.03;7.87;;;;;;;0.96;100.00;99726.53;4976835;28;20292;-79
2022/03/09 01:23:34;;;;;;;12.70;7.47;;;;;;;0.97;100.00;99722.22;4995998;28;20381;-79
2022/03/09 01:26:05;;;;;;;11.60;7.00;;;;;;;0.92;100.00;99727.50;4996248;28;20226;-79
2022/03/09 01:28:37;;;;;;;15.13;7.80;;;;;;;0.71;100.00;99727.81;4995947;28;20221;-79
2022/03/09 01:31:09;;;;;;;13.83;7.80;;;;;;;0.66;100.00;99722.66;4993735;28;20198;-80
2022/03/09 01:33:38;;;;;;;13.43;7.60;;;;;;;0.68;100.00;99713.09;4999919;28;20280;-79
2022/03/09 01:36:14;;;;;;;13.07;6.53;;;;;;;0.91;100.00;99707.53;5027094;28;20204;-80
2022/03/09 01:38:48;;;;;;;11.63;6.80;;;;;;;0.78;100.00;99706.00;5165728;27;20197;-79
2022/03/09 01:41:17;;;;;;;12.67;6.70;;;;;;;0.75;100.00;99712.09;5176878;27;20221;-79
2022/03/09 01:44:04;;;;;;;13.27;6.33;;;;;;;0.73;100.00;99713.88;5173821;27;20294;-79
2022/03/09 01:46:34;;;;;;;11.40;6.40;;;;;;;0.75;100.00;99713.84;5177431;27;20188;-79
2022/03/09 01:49:04;;;;;;;12.83;7.90;;;;;;;0.70;100.00;99715.69;5179078;27;20265;-79
2022/03/09 01:51:38;;;;;;;11.43;7.33;;;;;;;0.41;100.00;99714.34;5185569;27;20189;-79
2022/03/09 01:54:07;;;;;;;12.30;7.73;;;;;;;0.34;100.00;99698.81;5126766;27;20189;-78
2022/03/09 01:56:38;;;;;;;11.70;7.53;;;;;;;0.23;100.00;99699.84;5173189;27;20205;-81
2022/03/09 01:59:12;;;;;;;12.30;7.10;;;;;;;0.41;100.00;99701.34;5175745;27;20229;-79
2022/03/09 02:01:42;;;;;;;10.13;6.37;;;;;;;0.47;100.00;99700.38;5182596;27;20269;-79
2022/03/09 02:04:13;;;;;;;9.87;6.67;;;;;;;0.51;100.00;99700.31;5175125;27;20197;-79
2022/03/09 02:06:44;;;;;;;9.80;6.37;;;;;;;0.58;100.00;99706.31;5179924;27;20220;-79
2022/03/09 02:12:08;;;;;;;12.93;7.63;;;;;;;0.46;100.00;99702.13;5180126;27;20216;-78
2022/03/09 02:14:38;;;;;;;16.77;8.57;;;;;;;0.60;100.00;99709.75;5182578;27;20275;-78
2022/03/09 02:17:11;;;;;;;13.50;8.00;;;;;;;0.33;100.00;99710.13;5178225;27;20274;-78
2022/03/09 02:19:41;;;;;;;11.83;7.73;;;;;;;0.15;100.00;99716.44;5178491;27;20212;-77
2022/03/09 02:22:31;;;;;;;13.93;8.50;;;;;;;0.16;100.00;99706.00;5173471;27;20185;-78
2022/03/09 02:25:19;;;;;;;15.47;7.50;;;;;;;0.18;100.00;99705.97;5177644;27;20268;-78
2022/03/09 02:27:49;;;;;;;15.90;8.27;;;;;;;0.29;100.00;99696.31;5170436;27;20193;-78
2022/03/09 02:30:21;;;;;;;12.27;7.27;;;;;;;0.15;100.00;99696.47;5168572;27;20245;-78
2022/03/09 02:32:54;;;;;;;13.73;7.47;;;;;;;0.27;100.00;99692.84;5180806;27;20205;-78
2022/03/09 02:35:28;;;;;;;12.03;7.20;;;;;;;0.27;100.00;99698.03;5174779;27;20196;-78
2022/03/09 02:37:56;;;;;;;12.00;7.17;;;;;;;0.25;100.00;99694.59;5176501;27;20196;-78
2022/03/09 02:40:31;;;;;;;12.47;6.77;;;;;;;0.22;100.00;99692.91;5181532;27;20620;-78
2022/03/09 02:42:59;;;;;;;11.80;7.13;;;;;;;0.17;100.00;99702.50;5184213;27;20275;-79
2022/03/09 02:45:28;;;;;;;10.27;6.70;;;;;;;-0.07;100.00;99701.09;5179009;27;20196;-78
2022/03/09 02:47:57;;;;;;;11.13;6.17;;;;;;;-0.02;100.00;99699.28;5179472;27;20200;-79
2022/03/09 02:50:26;;;;;;;9.23;6.00;;;;;;;0.14;100.00;99697.34;5177277;27;20217;-78
2022/03/09 02:53:03;;;;;;;10.10;6.67;;;;;;;0.17;100.00;99691.25;5178702;27;20197;-78
2022/03/09 02:55:37;;;;;;;14.43;6.83;;;;;;;0.33;100.00;99697.97;5180545;27;20667;-78
2022/03/09 02:58:06;;;;;;;11.00;6.27;;;;;;;0.36;100.00;99691.84;5176953;27;20268;-79
2022/03/09 03:00:36;;;;;;;11.57;6.90;;;;;;;0.22;100.00;99692.06;5178977;27;20253;-78
2022/03/09 03:03:04;;;;;;;10.53;6.40;;;;;;;0.25;100.00;99690.25;5180557;27;20193;-78
2022/03/09 03:05:35;;;;;;;10.50;6.17;;;;;;;0.23;100.00;99697.22;5181086;27;20197;-78
2022/03/09 03:08:04;;;;;;;9.20;6.30;;;;;;;0.14;100.00;99694.75;5178395;27;20193;-78
2022/03/09 03:10:40;;;;;;;9.97;5.83;;;;;;;0.07;100.00;99689.63;5179128;27;20295;-78
2022/03/09 03:13:10;;;;;;;13.40;6.80;;;;;;;0.39;100.00;99689.22;5178459;27;20200;-78
2022/03/09 03:15:41;;;;;;;12.13;6.80;;;;;;;0.52;100.00;99682.94;5177137;27;20193;-78
2022/03/09 03:18:11;;;;;;;9.27;6.27;;;;;;;0.45;100.00;99681.28;5180700;27;20205;-78
2022/03/09 03:20:41;;;;;;;11.83;6.63;;;;;;;0.38;100.00;99685.72;5078166;28;20206;-78
2022/03/09 03:23:10;;;;;;;9.27;6.17;;;;;;;0.14;100.00;99684.34;5083128;28;20205;-78
2022/03/09 03:25:41;;;;;;;10.93;6.57;;;;;;;0.18;100.00;99690.34;5079474;28;20256;-77
2022/03/09 03:28:10;;;;;;;9.40;6.10;;;;;;;0.06;100.00;99687.91;5078468;28;20192;-78
2022/03/09 03:30:41;;;;;;;10.10;5.90;;;;;;;0.03;100.00;99683.63;5073596;28;20239;-78
2022/03/09 03:33:11;;;;;;;11.07;6.20;;;;;;;-0.09;100.00;99682.03;4999756;28;20211;-78
2022/03/09 03:35:44;;;;;;;8.53;6.30;;;;;;;-0.21;100.00;99687.38;5000949;28;20218;-78
2022/03/09 03:38:21;;;;;;;13.00;6.30;;;;;;;-0.06;100.00;99682.00;4942272;28;20195;-78
2022/03/09 03:40:50;;;;;;;10.37;6.30;;;;;;;-0.07;100.00;99695.03;5000421;28;20199;-78
2022/03/09 03:43:23;;;;;;;11.03;6.73;;;;;;;0.01;100.00;99693.19;4999084;28;20219;-77
2022/03/09 03:45:53;;;;;;;10.77;6.70;;;;;;;-0.15;100.00;99696.88;5000677;28;20203;-78
2022/03/09 03:48:22;;;;;;;12.53;6.40;;;;;;;-0.28;100.00;99695.28;5000994;28;20195;-78
2022/03/09 03:50:51;;;;;;;12.50;6.83;;;;;;;-0.30;100.00;99697.88;5022495;28;20265;-78
2022/03/09 03:53:20;;;;;;;11.57;6.80;;;;;;;-0.21;100.00;99702.13;5074177;28;20215;-78
2022/03/09 03:55:50;;;;;;;10.07;6.40;;;;;;;-0.36;100.00;99698.84;5093981;27;20220;-77
2022/03/09 03:58:19;;;;;;;10.57;6.97;;;;;;;-0.46;100.00;99698.97;5151930;27;20182;-77
2022/03/09 04:00:50;;;;;;;13.83;7.23;;;;;;;-0.41;100.00;99702.34;5152748;27;20225;-78
2022/03/09 04:03:18;;;;;;;14.80;7.77;;;;;;;-0.27;100.00;99697.00;5076207;28;20227;-78
2022/03/09 04:05:48;;;;;;;11.43;6.93;;;;;;;-0.22;100.00;99700.41;5074655;28;20275;-77
2022/03/09 04:08:18;;;;;;;12.47;7.17;;;;;;;-0.34;100.00;99701.41;5072226;28;20204;-77
2022/03/09 04:10:46;;;;;;;14.40;7.23;;;;;;;-0.25;100.00;99703.06;5031221;28;20807;-78
2022/03/09 04:13:16;;;;;;;11.90;7.03;;;;;;;-0.26;100.00;99701.34;5037192;28;20192;-77
2022/03/09 04:15:47;;;;;;;13.80;7.23;;;;;;;-0.39;100.00;99704.06;4997578;28;20650;-78
2022/03/09 04:18:17;;;;;;;13.70;7.60;;;;;;;-0.48;100.00;99704.19;4965419;28;20235;-78
2022/03/09 04:20:48;;;;;;;16.03;7.07;;;;;;;-0.54;100.00;99708.56;4976330;28;20206;-77
2022/03/09 04:23:18;;;;;;;13.53;7.40;;;;;;;-0.58;100.00;99712.94;4976750;28;20245;-77
2022/03/09 04:25:50;;;;;;;11.10;7.10;;;;;;;-0.54;100.00;99713.78;5014646;28;20761;-78
2022/03/09 04:28:20;;;;;;;11.17;6.97;;;;;;;-0.68;100.00;99713.91;5015134;28;20249;-78
2022/03/09 04:30:49;;;;;;;11.90;6.50;;;;;;;-0.55;100.00;99717.25;4938424;29;20220;-78
2022/03/09 04:33:21;;;;;;;12.40;7.20;;;;;;;-0.64;100.00;99718.22;4942161;28;20208;-77
2022/03/09 04:35:49;;;;;;;12.63;7.07;;;;;;;-0.66;100.00;99722.56;5015896;28;20223;-78
2022/03/09 04:38:22;;;;;;;13.27;7.10;;;;;;;-0.53;100.00;99718.09;5016655;28;20201;-78
2022/03/09 04:40:55;;;;;;;12.63;7.27;;;;;;;-0.51;100.00;99718.94;5018396;28;20241;-77
2022/03/09 04:43:28;;;;;;;11.40;7.40;;;;;;;-0.48;100.00;99729.31;4959687;29;20247;-77
2022/03/09 04:46:00;;;;;;;14.77;7.67;;;;;;;-0.51;100.00;99722.41;4940668;29;20205;-78
2022/03/09 04:48:32;;;;;;;12.57;7.97;;;;;;;-0.57;100.00;99716.44;4936528;29;20206;-78
2022/03/09 04:51:02;;;;;;;10.70;7.00;;;;;;;-0.63;100.00;99712.13;4901696;29;20215;-78
2022/03/09 04:53:31;;;;;;;13.77;7.30;;;;;;;-0.70;100.00;99710.47;4901460;29;20226;-77
2022/03/09 04:56:00;;;;;;;10.83;6.97;;;;;;;-0.76;100.00;99720.94;4923380;28;20195;-78
2022/03/09 04:58:30;;;;;;;12.60;6.93;;;;;;;-0.71;100.00;99713.94;4976698;28;20195;-78
2022/03/09 05:00:59;;;;;;;10.53;6.67;;;;;;;-0.72;100.00;99709.63;4971937;28;20200;-78
2022/03/09 05:03:28;;;;;;;11.40;6.80;;;;;;;-0.79;100.00;99718.34;4977539;28;20230;-78
2022/03/09 05:05:56;;;;;;;11.47;7.07;;;;;;;-0.60;100.00;99712.94;5014727;28;20301;-77
2022/03/09 05:08:24;;;;;;;11.83;7.10;;;;;;;-0.61;100.00;99715.56;5057570;28;20197;-78
2022/03/09 05:10:54;;;;;;;9.97;6.57;;;;;;;-0.64;100.00;99715.63;5036818;28;20213;-78
2022/03/09 05:13:25;;;;;;;9.60;6.70;;;;;;;-0.84;100.00;99721.00;5034464;28;20205;-78
2022/03/09 05:15:56;;;;;;;9.17;6.37;;;;;;;-0.93;100.00;99721.94;5043437;28;20207;-78
2022/03/09 05:18:24;;;;;;;13.80;7.27;;;;;;;-0.96;100.00;99711.59;4996187;28;20224;-78
2022/03/09 05:20:54;;;;;;;12.00;6.60;;;;;;;-0.92;100.00;99721.06;4998533;28;20254;-78
2022/03/09 05:23:22;;;;;;;14.60;8.33;;;;;;;-0.95;100.00;99721.09;4994435;28;20195;-78
2022/03/09 05:25:51;;;;;;;16.10;9.40;;;;;;;-1.18;100.00;99726.47;5007169;28;20660;-78
2022/03/09 05:28:23;;;;;;;13.67;7.50;;;;;;;-1.04;100.00;99725.50;5063882;28;20193;-78
2022/03/09 05:30:52;;;;;;;12.07;7.10;;;;;;;-0.86;100.00;99727.97;5115539;28;20223;-78
2022/03/09 05:33:27;;;;;;;10.00;6.57;;;;;;;-0.85;100.00;99729.69;5113265;28;20335;-78
2022/03/09 05:35:57;;;;;;;11.53;6.80;;;;;;;-0.90;100.00;99734.03;5130355;27;20263;-77
2022/03/09 05:38:25;;;;;;;9.63;6.13;;;;;;;-0.78;100.00;99730.47;5177583;27;20221;-77
2022/03/09 05:40:57;;;;;;;9.10;6.40;;;;;;;-0.74;100.00;99734.78;5177462;27;20264;-78
2022/03/09 05:43:26;;;;;;;10.07;6.20;;;;;;;-0.70;100.00;99741.66;5146208;27;20237;-78
2022/03/09 05:45:54;;;;;;;10.20;6.27;;;;;;;-0.68;100.00;99751.19;5132012;27;20193;-78
2022/03/09 05:48:28;;;;;;;9.77;6.10;;;;;;;-0.78;100.00;99748.66;5085475;28;20694;-78
2022/03/09 05:50:57;;;;;;;10.87;6.17;;;;;;;-0.83;100.00;99748.72;5088181;28;20233;-78
2022/03/09 05:53:25;;;;;;;10.23;6.13;;;;;;;-0.84;100.00;99748.75;5088444;28;20195;-78
2022/03/09 05:55:55;;;;;;;11.63;5.80;;;;;;;-0.84;100.00;99749.59;5080780;28;20643;-78
2022/03/09 05:58:26;;;;;;;12.17;5.80;;;;;;;-0.98;100.00;99764.44;5083512;28;20214;-78
2022/03/09 06:00:54;;;;;;;9.83;5.73;;;;;;;-0.98;100.00;99765.28;5087329;28;20200;-78
2022/03/09 06:03:23;;;;;;;9.00;5.87;;;;;;;-1.18;100.00;99768.03;5079448;28;20204;-78
2022/03/09 06:05:53;;;;;;;10.23;5.43;;;;;;;-1.21;100.00;99764.63;5097042;27;20239;-79
2022/03/09 06:08:22;;;;;;;8.17;5.77;;;;;;;-1.38;100.00;99759.50;5127075;27;20250;-77
2022/03/09 06:10:52;;;;;;;8.63;5.30;;;;;;;-1.34;100.00;99762.97;5138500;27;20218;-78
2022/03/09 06:13:22;;;;;;;7.13;5.90;;;;;;;-1.30;100.00;99768.13;5139118;27;20641;-77
2022/03/09 06:15:51;;;;;;;8.83;5.90;;;;;;;-1.31;100.00;99768.16;5131859;27;20190;-78
2022/03/09 06:18:19;;;;;;;9.23;6.30;;;;;;;-1.18;100.00;99773.25;5133826;28;20191;-78
2022/03/09 06:20:48;;;;;;;12.33;6.57;;;;;;;-1.22;100.00;99778.47;5133577;28;20224;-79
2022/03/09 06:23:18;;;;;;;9.50;6.40;;;;;;;-1.14;100.00;99787.09;5139284;28;20186;-77
2022/03/09 06:25:47;;;;;;;10.40;6.50;;;;;;;-1.15;100.00;99785.38;5139512;27;20186;-77
2022/03/09 06:28:17;;;;;;;9.07;6.47;;;;;;;-1.36;100.00;99790.69;5136806;27;20202;-78
2022/03/09 06:30:46;;;;;;;11.60;6.13;;;;;;;-1.39;100.00;99795.91;5142640;27;20194;-77
2022/03/09 06:33:14;;;;;;;10.40;6.40;;;;;;;-1.49;100.00;99780.38;5144037;27;20194;-77
2022/03/09 06:35:43;;;;;;;11.57;6.50;;;;;;;-1.48;100.00;99786.41;5139404;27;20186;-78
2022/03/09 06:38:12;;;;;;;10.97;7.13;;;;;;;-1.42;100.00;99791.59;5142194;27;20194;-78
2022/03/09 06:40:43;;;;;;;12.73;7.07;;;;;;;-1.32;100.00;99785.47;5140635;27;20197;-78
2022/03/09 06:43:14;;;;;;;12.93;7.50;;;;;;;-1.38;100.00;99785.50;5071311;28;20218;-78
2022/03/09 06:45:44;;;;;;;10.73;7.37;;;;;;;-1.31;100.00;99789.78;5089724;28;20210;-78
2022/03/09 06:48:13;;;;;;;13.10;7.77;;;;;;;-1.30;100.00;99790.66;5093586;28;20203;-78
2022/03/09 06:50:41;;;;;;;15.83;8.37;;;;;;;-1.29;100.00;99789.78;5084629;28;20211;-78
2022/03/09 06:53:10;;;;;;;12.80;8.07;;;;;;;-1.23;100.00;99788.00;5087898;28;20245;-78
2022/03/09 06:55:40;;;;;;;16.07;8.60;;;;;;;-0.96;100.00;99793.91;5089768;28;20191;-77
2022/03/09 06:58:10;;;;;;;13.07;8.63;;;;;;;-0.97;100.00;99798.22;5082252;28;20183;-78
2022/03/09 07:00:39;;;;;;;14.17;8.20;;;;;;;-0.85;100.00;99805.09;5094650;27;20193;-77
2022/03/09 07:03:09;;;;;;;12.83;8.23;;;;;;;-0.68;100.00;99805.78;5131744;27;20201;-78
2022/03/09 07:05:39;;;;;;;13.97;8.43;;;;;;;-0.63;100.00;99804.03;5110246;27;20194;-78
2022/03/09 07:08:08;;;;;;;12.90;8.50;;;;;;;-0.49;100.00;99814.31;5138011;27;20197;-78
2022/03/09 07:10:39;;;;;;;13.30;8.60;;;;;;;-0.65;100.00;99808.38;5137448;27;20198;-78
2022/03/09 07:13:12;;;;;;;14.83;8.30;;;;;;;-0.44;100.00;99807.34;5135823;27;20286;-78
2022/03/09 07:15:42;;;;;;;14.63;8.60;;;;;;;-0.48;100.00;99802.16;5136388;27;20214;-78
2022/03/09 07:18:11;;;;;;;14.13;9.13;;;;;;;-0.34;100.00;99797.72;5137324;27;20235;-78
2022/03/09 07:20:40;;;;;;;14.40;8.80;;;;;;;-0.22;100.00;99801.91;5131870;27;20194;-78
2022/03/09 07:23:09;;;;;;;16.90;9.13;;;;;;;-0.13;100.00;99799.22;5137352;27;20210;-78
2022/03/09 07:25:40;;;;;;;14.43;8.70;;;;;;;-0.04;100.00;99804.34;5132762;27;20194;-78
2022/03/09 07:28:15;;;;;;;13.80;7.87;;;;;;;-0.01;100.00;99805.16;5134451;27;20200;-78
2022/03/09 07:30:44;;;;;;;13.97;8.47;;;;;;;0.14;100.00;99816.28;5129129;27;20238;-77
2022/03/09 07:33:15;;;;;;;16.50;9.10;;;;;;;0.30;100.00;99817.84;5136973;27;20224;-78
2022/03/09 07:35:46;;;;;;;13.93;9.10;;;;;;;0.31;100.00;99821.31;5129773;27;20186;-78
2022/03/09 07:38:15;;;;;;;15.57;9.57;;;;;;;0.38;100.00;99820.34;5134570;27;20182;-78
2022/03/09 07:40:44;;;;;;;14.00;9.10;;;;;;;0.48;100.00;99816.75;5135108;27;20203;-78
2022/03/09 07:43:14;;;;;;;13.20;8.83;;;;;;;0.68;100.00;99822.59;5138312;27;20190;-78
2022/03/09 07:45:46;;;;;;;14.30;8.80;;;;;;;0.80;100.00;99824.16;5171429;27;20251;-78
2022/03/09 07:48:14;;;;;;;16.67;8.30;;;;;;;0.87;100.00;99820.59;5172322;27;20193;-78
2022/03/09 07:50:43;;;;;;;12.53;8.50;;;;;;;1.05;100.00;99816.81;5178394;27;20196;-78
2022/03/09 07:53:11;;;;;;;15.50;8.73;;;;;;;1.15;100.00;99824.50;5166384;27;20213;-78
2022/03/09 07:55:40;;;;;;;12.23;8.17;;;;;;;1.26;100.00;99824.34;5170862;27;20647;-78
2022/03/09 07:58:08;;;;;;;16.83;10.10;;;;;;;1.15;100.00;99826.25;5168510;27;20315;-78
2022/03/09 08:00:40;;;;;;;14.50;8.97;;;;;;;1.43;100.00;99819.69;5167215;27;20195;-78
2022/03/09 08:03:12;;;;;;;14.53;9.00;;;;;;;1.51;100.00;99819.59;5172442;27;20224;-78
2022/03/09 08:05:57;;;;;;;14.30;9.23;;;;;;;1.67;100.00;99825.41;5113643;28;20195;-78
2022/03/09 08:08:26;;;;;;;12.67;8.60;;;;;;;1.73;100.00;99822.69;5107776;28;20190;-78
2022/03/09 08:10:54;;;;;;;15.00;8.70;;;;;;;1.91;100.00;99821.50;5113910;28;20201;-78
2022/03/09 08:13:23;;;;;;;13.60;8.97;;;;;;;2.14;100.00;99821.09;5109672;28;20214;-79
2022/03/09 08:15:54;;;;;;;14.03;8.60;;;;;;;2.06;100.00;99821.22;5109298;28;20191;-78
2022/03/09 08:18:23;;;;;;;12.77;8.83;;;;;;;2.17;100.00;99814.03;5107821;28;20287;-78
2022/03/09 08:20:51;;;;;;;13.13;8.73;;;;;;;2.37;100.00;99820.63;5110213;28;20240;-79
2022/03/09 08:23:19;;;;;;;14.97;9.00;;;;;;;2.58;100.00;99817.56;5110530;27;20201;-79
2022/03/09 08:25:47;;;;;;;16.90;8.53;;;;;;;2.71;100.00;99815.56;5170993;27;20199;-78
2022/03/09 08:28:16;;;;;;;14.23;9.30;;;;;;;2.92;100.00;99815.09;5177724;27;20204;-78
2022/03/09 08:30:44;;;;;;;11.63;8.53;;;;;;;3.16;100.00;99809.28;5168153;27;20249;-78
2022/03/09 08:33:16;;;;;;;12.87;8.30;;;;;;;3.28;100.00;99816.00;5172560;27;20212;-78
2022/03/09 08:35:45;;;;;;;15.53;8.33;;;;;;;3.51;100.00;99812.81;5169417;27;20192;-79
2022/03/09 08:38:16;;;;;;;12.27;7.90;;;;;;;3.88;100.00;99814.50;5172212;27;20189;-78
2022/03/09 08:40:44;;;;;;;8.67;6.00;;;;;;;4.46;100.00;99810.28;5174352;27;20207;-78
2022/03/09 08:43:13;;;;;;;9.40;6.17;;;;;;;4.81;100.00;99804.84;5169891;27;20675;-79
2022/03/09 08:45:43;;;;;;;11.77;5.80;;;;;;;5.07;99.64;99806.69;5112066;28;20191;-79
2022/03/09 08:48:13;;;;;;;9.47;5.83;;;;;;;5.30;93.95;99803.31;5107406;28;20195;-78
2022/03/09 08:50:43;;;;;;;10.33;6.10;;;;;;;5.49;88.16;99815.84;5105039;28;20199;-79
2022/03/09 08:53:13;;;;;;;8.80;6.53;;;;;;;5.57;84.88;99812.06;5110194;28;20225;-78
2022/03/09 08:55:41;;;;;;;9.20;5.90;;;;;;;5.67;82.05;99810.00;5108183;28;20207;-79
2022/03/09 08:58:10;;;;;;;8.17;6.17;;;;;;;6.01;80.55;99813.25;5103517;28;20203;-79
2022/03/09 09:00:38;;;;;;;12.43;7.07;;;;;;;6.06;78.13;99804.31;5101785;28;20187;-79
2022/03/09 09:03:09;;;;;;;9.67;6.07;;;;;;;6.26;76.77;99812.34;5118729;27;20185;-79
2022/03/09 09:05:38;;;;;;;10.77;6.67;;;;;;;6.12;75.47;99812.84;5163267;27;20277;-79
2022/03/09 09:08:08;;;;;;;12.63;6.00;;;;;;;6.18;76.34;99806.53;5171794;27;20192;-79
2022/03/09 09:10:37;;;;;;;8.57;5.93;;;;;;;6.56;75.63;99813.91;5167957;27;20636;-79
2022/03/09 09:13:07;;;;;;;10.93;7.00;;;;;;;6.65;73.26;99802.13;5169370;27;20211;-78
2022/03/09 09:15:36;;;;;;;10.73;6.87;;;;;;;6.76;72.43;99799.13;5172500;27;20279;-79
2022/03/09 09:18:06;;;;;;;12.53;5.77;;;;;;;6.92;71.27;99810.75;5140958;27;20214;-78
2022/03/09 09:20:49;;;;;;;10.10;6.20;;;;;;;7.06;70.43;99811.09;5176931;27;20191;-78
2022/03/09 09:23:19;;;;;;;8.83;5.93;;;;;;;7.07;69.31;99811.97;5171182;27;20201;-79
2022/03/09 09:25:49;;;;;;;11.50;7.37;;;;;;;6.86;69.50;99811.88;5172267;27;20208;-78
2022/03/09 09:28:18;;;;;;;11.17;6.17;;;;;;;7.04;67.74;99815.53;5169523;27;20185;-78
2022/03/09 09:30:47;;;;;;;9.03;6.37;;;;;;;7.17;67.90;99821.22;5161236;27;20214;-78
2022/03/09 09:33:16;;;;;;;11.93;6.40;;;;;;;7.14;66.30;99816.03;5171430;27;20217;-78
2022/03/09 09:35:47;;;;;;;12.60;7.40;;;;;;;7.08;65.32;99827.69;5170414;27;20185;-78
2022/03/09 09:38:16;;;;;;;25.67;16.93;;;;;;;7.29;66.18;99819.88;5163958;27;20226;-78
2022/03/09 09:40:47;;;;;;;8.83;6.63;;;;;;;7.30;64.50;99821.56;5168424;27;20196;-78
2022/03/09 09:43:18;;;;;;;11.10;7.23;;;;;;;7.52;64.60;99825.03;5172871;27;20236;-78
2022/03/09 09:45:48;;;;;;;10.57;6.77;;;;;;;7.32;63.54;99822.38;5118141;27;20201;-78
2022/03/09 09:48:17;;;;;;;11.47;6.67;;;;;;;7.44;64.91;99828.03;5176290;27;20197;-78
2022/03/09 09:50:46;;;;;;;12.23;6.43;;;;;;;7.90;63.09;99817.31;5170466;27;20197;-78
2022/03/09 09:53:16;;;;;;;9.07;6.30;;;;;;;8.20;60.68;99829.22;5163709;27;20217;-78
2022/03/09 09:55:46;;;;;;;9.40;6.43;;;;;;;8.23;60.14;99825.59;5158299;27;20237;-78
2022/03/09 09:58:15;;;;;;;8.83;6.53;;;;;;;8.40;59.38;99822.25;5170579;27;20181;-79
2022/03/09 10:00:44;;;;;;;10.03;6.13;;;;;;;8.37;56.88;99823.22;5163542;27;20242;-78
2022/03/09 10:03:13;;;;;;;10.40;6.50;;;;;;;8.81;56.71;99818.59;5170269;27;20200;-78
2022/03/09 10:05:43;;;;;;;9.80;6.57;;;;;;;8.88;55.95;99821.81;5172960;27;20201;-79
2022/03/09 10:08:18;;;;;;;10.97;7.00;;;;;;;9.06;55.50;99817.41;5135811;27;20238;-79
2022/03/09 10:11:03;;;;;;;10.47;6.23;;;;;;;8.95;54.58;99815.28;5176096;27;20195;-79
2022/03/09 10:13:33;;;;;;;9.70;6.13;;;;;;;8.96;54.15;99819.63;5172571;27;20228;-78
2022/03/09 10:16:15;;;;;;;10.13;6.27;;;;;;;9.21;53.18;99822.00;5170674;27;20192;-79
2022/03/09 10:18:50;;;;;;;7.53;6.10;;;;;;;9.07;53.27;99822.66;5173893;27;20192;-79
2022/03/09 10:21:21;;;;;;;10.07;6.20;;;;;;;9.31;52.82;99815.34;5172941;27;20184;-79
2022/03/09 10:23:59;;;;;;;10.13;6.20;;;;;;;9.54;50.91;99819.50;5175989;27;20192;-79
2022/03/09 10:26:44;;;;;;;8.20;6.03;;;;;;;9.53;52.31;99814.28;5171765;27;20200;-78
2022/03/09 10:29:14;;;;;;;8.03;6.20;;;;;;;9.75;50.32;99825.53;5171069;27;20181;-79
2022/03/09 10:31:47;;;;;;;10.27;6.20;;;;;;;9.91;49.86;99818.53;5168484;27;20205;-79
2022/03/09 10:34:22;;;;;;;11.33;7.13;;;;;;;9.93;50.69;99818.44;5175947;27;20240;-80
2022/03/09 10:36:56;;;;;;;11.03;6.37;;;;;;;9.52;51.23;99824.00;5167270;27;20193;-79
2022/03/09 10:39:27;;;;;;;8.63;6.10;;;;;;;9.95;50.19;99817.44;5170944;27;20203;-79
2022/03/09 10:42:03;;;;;;;8.23;5.93;;;;;;;10.07;48.31;99821.25;5175614;27;20191;-80
2022/03/09 10:44:46;;;;;;;8.67;6.10;;;;;;;10.12;47.26;99813.91;5169713;27;20242;-80
2022/03/09 10:47:30;;;;;;;11.60;6.03;;;;;;;10.41;46.59;99809.78;5165978;27;20674;-80
2022/03/09 10:50:14;;;;;;;8.87;6.27;;;;;;;11.01;46.41;99809.22;5172571;27;20181;-80
2022/03/09 10:52:48;;;;;;;9.47;6.33;;;;;;;11.19;45.20;99805.50;5112410;28;20195;-80
2022/03/09 10:55:25;;;;;;;9.40;6.60;;;;;;;10.97;45.26;99811.16;5101104;28;20215;-80
2022/03/09 10:58:23;;;;;;;10.50;6.53;;;;;;;11.11;45.41;99807.78;5106143;28;20228;-79
2022/03/09 11:00:54;;;;;;;8.23;6.03;;;;;;;11.07;45.87;99807.06;5107254;28;20291;-79
2022/03/09 11:03:25;;;;;;;8.73;6.10;;;;;;;11.56;45.17;99800.78;5103615;28;20202;-79
2022/03/09 11:05:55;;;;;;;11.60;6.80;;;;;;;11.46;45.45;99790.69;5106249;28;20316;-79
2022/03/09 11:08:26;;;;;;;11.27;6.50;;;;;;;11.90;43.90;99794.41;5108629;28;20210;-80
2022/03/09 11:10:55;;;;;;;11.57;7.07;;;;;;;12.16;44.48;99793.72;5139334;27;20195;-79
2022/03/09 11:13:26;;;;;;;9.53;6.83;;;;;;;12.35;43.16;99785.44;5169478;27;20193;-79
2022/03/09 11:15:54;;;;;;;10.80;6.97;;;;;;;12.26;42.69;99788.69;5150859;27;20608;-79
2022/03/09 11:18:25;;;;;;;9.90;6.70;;;;;;;11.99;42.38;99791.19;5173565;27;20185;-79
2022/03/09 11:20:55;;;;;;;8.20;6.33;;;;;;;12.10;41.71;99783.44;5177921;27;20197;-80
2022/03/09 11:23:26;;;;;;;9.07;6.90;;;;;;;12.46;41.42;99780.34;5140970;27;20191;-79
2022/03/09 11:26:02;;;;;;;8.77;6.10;;;;;;;12.69;41.11;99772.75;5172247;27;20197;-79
2022/03/09 11:28:35;;;;;;;10.87;6.23;;;;;;;12.82;40.24;99765.69;5179420;27;20192;-79
2022/03/09 11:31:06;;;;;;;10.80;6.97;;;;;;;12.20;40.58;99766.00;5137499;27;20241;-80
2022/03/09 11:33:42;;;;;;;9.87;6.60;;;;;;;12.87;40.70;99760.94;5173655;27;20193;-79
2022/03/09 11:36:33;;;;;;;9.83;7.20;;;;;;;13.25;39.71;99760.31;5179070;27;20345;-79
2022/03/09 11:39:22;;;;;;;11.30;7.47;;;;;;;12.50;41.53;99760.59;5168617;27;20241;-80
2022/03/09 11:41:50;;;;;;;10.53;6.90;;;;;;;12.75;40.19;99756.41;5174580;27;20280;-80
2022/03/09 11:44:31;;;;;;;8.80;6.43;;;;;;;13.18;39.59;99755.34;5174993;27;20687;-80